createdAt,value
2019-04-14T00:02:14.121Z,24.90
2019-04-14T00:04:26.923Z,22.47
2019-04-14T00:06:37.601Z,25.27
2019-04-14T00:08:45.867Z,21.37
2019-04-14T00:10:53.663Z,20.63
2019-04-14T00:13:01.041Z,22.97
2019-04-14T00:15:21.102Z,20.37
2019-04-14T00:17:20.248Z,22.23
2019-04-14T00:19:28.367Z,22.83
2019-04-14T00:21:36.772Z,19.93
2019-04-14T00:23:45.531Z,18.93
2019-04-14T00:25:54.328Z,23.50
2019-04-14T00:28:02.954Z,20.40
2019-04-14T00:30:12.822Z,19.70
2019-04-14T00:32:20.534Z,21.97
2019-04-14T00:34:54.981Z,25.47
2019-04-14T00:37:07.779Z,17.87
2019-04-14T00:39:20.496Z,24.23
2019-04-14T00:41:48.888Z,22.10
2019-04-14T00:44:03.652Z,24.17
2019-04-14T00:46:14.951Z,22.60
2019-04-14T00:48:25.860Z,22.20
2019-04-14T00:50:34.186Z,20.73
2019-04-14T00:52:41.608Z,22.60
2019-04-14T00:54:50.039Z,25.60
2019-04-14T00:56:58.506Z,26.80
2019-04-14T00:59:07.107Z,25.20
2019-04-14T01:01:15.470Z,26.83
2019-04-14T01:03:23.066Z,29.63
2019-04-14T01:05:32.862Z,23.90
2019-04-14T01:07:39.552Z,18.70
2019-04-14T01:09:46.895Z,17.50
2019-04-14T01:11:55.223Z,23.20
2019-04-14T01:14:03.732Z,27.53
2019-04-14T01:16:17.562Z,21.13
2019-04-14T01:18:21.751Z,21.03
2019-04-14T01:20:29.643Z,19.77
2019-04-14T01:22:38.081Z,20.13
2019-04-14T01:24:46.757Z,23.50
2019-04-14T01:26:55.044Z,21.60
2019-04-14T01:29:03.619Z,22.60
2019-04-14T01:31:11.978Z,20.80
2019-04-14T01:33:20.526Z,20.97
2019-04-14T01:35:29.220Z,23.20
2019-04-14T01:37:37.600Z,23.13
2019-04-14T01:39:46.041Z,20.73
2019-04-14T01:41:54.350Z,27.30
2019-04-14T01:44:02.479Z,25.77
2019-04-14T01:46:17.772Z,22.87
2019-04-14T01:48:19.308Z,24.80
2019-04-14T01:50:56.945Z,21.57
2019-04-14T01:53:09.713Z,19.40
2019-04-14T01:55:26.641Z,24.00
2019-04-14T01:57:39.890Z,18.97
2019-04-14T01:59:48.254Z,23.33
2019-04-14T02:01:56.562Z,23.80
2019-04-14T02:04:04.960Z,23.37
2019-04-14T02:06:13.544Z,18.90
2019-04-14T02:08:21.974Z,23.50
2019-04-14T02:10:30.492Z,19.80
2019-04-14T02:12:38.778Z,27.17
2019-04-14T02:14:47.324Z,24.20
2019-04-14T02:16:57.849Z,25.07
2019-04-14T02:19:04.618Z,21.10
2019-04-14T02:21:12.848Z,15.93
2019-04-14T02:23:21.481Z,16.23
2019-04-14T02:25:29.587Z,17.63
2019-04-14T02:27:38.167Z,22.17
2019-04-14T02:29:45.700Z,15.43
2019-04-14T02:32:30.113Z,17.13
2019-04-14T02:34:34.735Z,17.47
2019-04-14T02:36:40.234Z,17.70
2019-04-14T02:43:03.974Z,22.57
2019-04-14T02:45:19.872Z,15.97
2019-04-14T02:49:38.552Z,14.57
2019-04-14T02:51:43.963Z,18.37
2019-04-14T02:53:57.624Z,15.20
2019-04-14T02:58:15.713Z,18.57
2019-04-14T03:00:24.588Z,15.37
2019-04-14T03:02:30.346Z,15.57
2019-04-14T03:04:39.274Z,15.40
2019-04-14T03:06:41.213Z,15.90
2019-04-14T03:09:04.488Z,16.27
2019-04-14T03:11:03.041Z,17.37
2019-04-14T03:13:15.104Z,17.93
2019-04-14T03:20:32.503Z,15.50
2019-04-14T03:24:50.513Z,15.53
2019-04-14T03:27:49.960Z,16.17
2019-04-14T03:29:43.079Z,10.90
2019-04-14T03:36:44.862Z,16.80
2019-04-14T03:38:26.663Z,14.33
2019-04-14T03:40:35.703Z,16.33
2019-04-14T03:42:47.197Z,14.93
2019-04-14T03:46:58.984Z,13.80
2019-04-14T03:49:08.086Z,17.43
2019-04-14T03:55:20.585Z,13.40
2019-04-14T03:57:17.188Z,15.93
2019-04-14T03:59:26.158Z,15.97
2019-04-14T04:01:34.536Z,16.60
2019-04-14T04:03:42.055Z,15.40
2019-04-14T04:05:49.971Z,16.20
2019-04-14T04:07:58.088Z,16.03
2019-04-14T04:10:14.006Z,21.00
2019-04-14T04:12:22.467Z,20.87
2019-04-14T04:14:31.244Z,16.87
2019-04-14T04:16:57.315Z,14.77
2019-04-14T04:19:17.063Z,14.93
2019-04-14T04:21:42.343Z,11.00
2019-04-14T04:23:59.675Z,13.93
2019-04-14T04:26:13.311Z,16.83
2019-04-14T04:28:45.335Z,19.03
2019-04-14T04:31:24.234Z,13.53
2019-04-14T04:34:03.342Z,12.30
2019-04-14T04:36:18.289Z,12.03
2019-04-14T04:38:31.222Z,12.80
2019-04-14T04:40:39.735Z,14.53
2019-04-14T04:42:48.320Z,14.13
2019-04-14T04:44:55.957Z,10.90
2019-04-14T04:47:03.530Z,15.60
2019-04-14T04:49:18.373Z,13.33
2019-04-14T04:51:20.980Z,16.07
2019-04-14T04:53:28.780Z,12.13
2019-04-14T04:55:37.346Z,15.00
2019-04-14T04:57:45.912Z,11.47
2019-04-14T04:59:53.940Z,12.83
2019-04-14T05:02:02.649Z,12.30
2019-04-14T05:04:11.073Z,15.00
2019-04-14T05:07:01.439Z,19.07
2019-04-14T05:09:17.188Z,14.77
2019-04-14T05:11:33.683Z,11.93
2019-04-14T05:13:42.505Z,13.67
2019-04-14T05:16:00.160Z,13.30
2019-04-14T05:18:09.177Z,15.10
2019-04-14T05:20:16.674Z,13.37
2019-04-14T05:22:24.717Z,15.93
2019-04-14T05:24:33.237Z,17.60
2019-04-14T05:26:41.739Z,12.37
2019-04-14T05:28:49.215Z,14.07
2019-04-14T05:30:58.940Z,12.30
2019-04-14T05:33:07.489Z,18.77
2019-04-14T05:35:16.017Z,15.03
2019-04-14T05:37:24.769Z,11.23
2019-04-14T05:39:32.945Z,12.77
2019-04-14T05:41:47.991Z,13.10
2019-04-14T05:43:54.861Z,15.40
2019-04-14T05:45:59.108Z,15.20
2019-04-14T05:48:07.466Z,12.73
2019-04-14T05:50:15.885Z,16.73
2019-04-14T05:52:23.343Z,16.33
2019-04-14T05:54:31.693Z,14.60
2019-04-14T05:56:40.638Z,12.47
2019-04-14T05:58:49.241Z,16.17
2019-04-14T06:00:57.912Z,15.60
2019-04-14T06:03:05.958Z,12.73
2019-04-14T06:05:14.522Z,12.20
2019-04-14T06:07:22.211Z,13.03
2019-04-14T06:09:31.319Z,13.03
2019-04-14T06:11:38.858Z,16.63
2019-04-14T06:13:46.359Z,15.60
2019-04-14T06:15:53.825Z,13.10
2019-04-14T06:18:01.216Z,16.73
2019-04-14T06:20:08.800Z,13.57
2019-04-14T06:22:16.188Z,13.30
2019-04-14T06:24:23.644Z,18.17
2019-04-14T06:26:31.139Z,11.80
2019-04-14T06:28:38.680Z,16.67
2019-04-14T06:31:03.736Z,13.97
2019-04-14T06:33:25.926Z,15.40
2019-04-14T06:35:54.896Z,12.77
2019-04-14T06:38:05.927Z,12.33
2019-04-14T06:40:13.811Z,11.93
2019-04-14T06:42:21.272Z,15.33
2019-04-14T06:44:28.719Z,14.17
2019-04-14T06:46:36.353Z,13.10
2019-04-14T06:48:43.787Z,14.60
2019-04-14T06:50:51.182Z,14.50
2019-04-14T06:52:58.683Z,13.50
2019-04-14T06:55:06.201Z,15.70
2019-04-14T06:57:13.602Z,16.67
2019-04-14T06:59:21.120Z,13.57
2019-04-14T07:01:28.549Z,14.83
2019-04-14T07:03:35.939Z,15.60
2019-04-14T07:05:43.479Z,10.93
2019-04-14T07:07:56.933Z,15.90
2019-04-14T07:10:00.127Z,11.37
2019-04-14T07:12:07.706Z,13.77
2019-04-14T07:14:15.193Z,11.47
2019-04-14T07:16:22.718Z,12.83
2019-04-14T07:18:30.165Z,12.03
2019-04-14T07:20:37.813Z,14.43
2019-04-14T07:22:45.270Z,13.07
2019-04-14T07:24:53.186Z,10.03
2019-04-14T07:27:01.134Z,14.27
2019-04-14T07:29:08.760Z,13.17
2019-04-14T07:31:49.988Z,13.07
2019-04-14T07:34:16.240Z,9.53
2019-04-14T07:36:57.638Z,12.93
2019-04-14T07:39:24.227Z,14.33
2019-04-14T07:41:50.422Z,13.77
2019-04-14T07:44:16.796Z,14.30
2019-04-14T07:46:44.461Z,15.07
2019-04-14T07:49:10.947Z,14.43
2019-04-14T07:54:00.397Z,12.07
2019-04-14T07:56:26.565Z,12.60
2019-04-14T07:58:55.888Z,14.73
2019-04-14T08:01:10.116Z,14.90
2019-04-14T08:03:54.620Z,13.10
2019-04-14T08:06:02.328Z,19.07
2019-04-14T08:08:09.948Z,18.13
2019-04-14T08:10:17.617Z,16.57
2019-04-14T08:12:25.308Z,18.83
2019-04-14T08:14:32.800Z,17.17
2019-04-14T08:16:40.282Z,12.60
2019-04-14T08:18:47.859Z,12.53
2019-04-14T08:20:55.332Z,11.07
2019-04-14T08:23:03.143Z,11.50
2019-04-14T08:25:10.976Z,10.77
2019-04-14T08:27:18.472Z,14.07
2019-04-14T08:29:27.247Z,11.03
2019-04-14T08:31:35.633Z,15.87
2019-04-14T08:33:43.516Z,12.33
2019-04-14T08:35:51.483Z,12.17
2019-04-14T08:37:59.294Z,14.33
2019-04-14T08:40:09.262Z,13.13
2019-04-14T08:42:38.503Z,10.70
2019-04-14T08:44:48.018Z,10.07
2019-04-14T08:47:20.214Z,11.30
2019-04-14T08:49:51.238Z,13.83
2019-04-14T08:52:20.327Z,10.33
2019-04-14T08:54:40.846Z,10.30
2019-04-14T08:56:57.203Z,11.67
2019-04-14T08:59:29.767Z,8.53
2019-04-14T09:01:56.087Z,13.33
2019-04-14T09:04:21.041Z,8.77
2019-04-14T09:06:42.456Z,9.70
2019-04-14T09:09:01.087Z,9.90
2019-04-14T09:11:09.162Z,8.77
2019-04-14T09:13:16.769Z,10.97
2019-04-14T09:15:24.368Z,10.57
2019-04-14T09:17:32.061Z,7.60
2019-04-14T09:19:39.559Z,8.17
2019-04-14T09:21:47.141Z,6.70
2019-04-14T09:24:21.806Z,8.20
2019-04-14T09:26:29.300Z,11.27
2019-04-14T09:28:36.764Z,7.50
2019-04-14T09:30:44.325Z,7.60
2019-04-14T09:32:51.966Z,7.63
2019-04-14T09:34:59.539Z,9.07
2019-04-14T09:37:07.135Z,7.47
2019-04-14T09:39:15.022Z,8.63
2019-04-14T09:41:22.770Z,8.77
2019-04-14T09:43:30.471Z,9.17
2019-04-14T09:45:38.006Z,10.50
2019-04-14T09:47:45.485Z,9.27
2019-04-14T09:49:53.169Z,8.27
2019-04-14T09:52:01.486Z,7.40
2019-04-14T09:54:09.233Z,6.97
2019-04-14T09:56:16.806Z,9.37
2019-04-14T09:58:24.494Z,10.10
2019-04-14T10:00:34.422Z,6.93
2019-04-14T10:02:42.042Z,12.13
2019-04-14T10:04:50.278Z,13.90
2019-04-14T10:06:57.865Z,13.70
2019-04-14T10:09:06.737Z,11.73
2019-04-14T10:11:14.321Z,11.60
2019-04-14T10:13:22.152Z,12.20
2019-04-14T10:15:29.662Z,10.13
2019-04-14T10:17:37.209Z,12.73
2019-04-14T10:19:45.744Z,6.63
2019-04-14T10:21:54.256Z,11.23
2019-04-14T10:24:01.845Z,8.07
2019-04-14T10:26:09.384Z,8.23
2019-04-14T10:28:16.922Z,7.00
2019-04-14T10:30:24.554Z,6.93
2019-04-14T10:32:32.305Z,6.17
2019-04-14T10:34:39.827Z,6.63
2019-04-14T10:36:47.523Z,6.90
2019-04-14T10:38:55.339Z,7.40
2019-04-14T10:41:02.857Z,6.80
2019-04-14T10:43:10.326Z,7.30
2019-04-14T10:45:18.547Z,6.40
2019-04-14T10:47:26.226Z,6.63
2019-04-14T10:49:33.823Z,5.90
2019-04-14T10:51:41.691Z,6.00
2019-04-14T10:53:50.640Z,5.33
2019-04-14T10:55:58.273Z,6.07
2019-04-14T10:58:06.076Z,7.27
2019-04-14T11:00:16.679Z,6.60
2019-04-14T11:02:24.363Z,5.47
2019-04-14T11:04:32.539Z,6.07
2019-04-14T11:07:04.974Z,6.50
2019-04-14T11:09:16.896Z,6.93
2019-04-14T11:11:25.285Z,6.77
2019-04-14T11:13:33.640Z,7.80
2019-04-14T11:15:41.619Z,8.07
2019-04-14T11:17:49.644Z,6.83
2019-04-14T11:19:57.234Z,7.63
2019-04-14T11:22:04.820Z,5.93
2019-04-14T11:24:12.532Z,7.43
2019-04-14T11:26:20.024Z,6.77
2019-04-14T11:28:27.780Z,11.00
2019-04-14T11:30:35.457Z,5.97
2019-04-14T11:32:52.929Z,8.57
2019-04-14T11:35:34.440Z,7.03
2019-04-14T11:38:12.719Z,5.63
2019-04-14T11:40:23.136Z,8.17
2019-04-14T11:42:30.735Z,7.87
2019-04-14T11:44:38.447Z,7.30
2019-04-14T11:46:46.836Z,8.20
2019-04-14T11:48:55.512Z,8.07
2019-04-14T11:51:03.022Z,9.97
2019-04-14T11:53:10.593Z,8.73
2019-04-14T11:55:18.034Z,5.93
2019-04-14T11:57:27.196Z,7.03
2019-04-14T11:59:55.040Z,7.77
2019-04-14T12:02:09.277Z,8.07
2019-04-14T12:04:37.236Z,9.53
2019-04-14T12:07:20.153Z,6.43
2019-04-14T12:09:34.034Z,7.23
2019-04-14T12:11:41.662Z,9.83
2019-04-14T12:13:49.294Z,9.17
2019-04-14T12:15:57.376Z,9.33
2019-04-14T12:18:05.476Z,10.00
2019-04-14T12:20:15.452Z,11.40
2019-04-14T12:22:25.046Z,12.37
2019-04-14T12:24:32.996Z,10.87
2019-04-14T12:26:41.388Z,11.20
2019-04-14T12:28:49.672Z,9.67
2019-04-14T12:30:57.836Z,9.03
2019-04-14T12:33:06.147Z,7.23
2019-04-14T12:35:16.298Z,11.13
2019-04-14T12:37:23.980Z,12.30
2019-04-14T12:39:31.934Z,5.20
2019-04-14T12:41:44.700Z,7.73
2019-04-14T12:44:03.922Z,7.70
2019-04-14T12:46:42.151Z,7.47
2019-04-14T12:48:56.937Z,6.67
2019-04-14T12:51:15.792Z,8.17
2019-04-14T12:53:23.462Z,7.57
2019-04-14T12:55:31.001Z,7.53
2019-04-14T12:57:57.123Z,5.93
2019-04-14T13:00:09.559Z,8.00
2019-04-14T13:02:22.683Z,8.10
2019-04-14T13:04:31.300Z,8.43
2019-04-14T13:06:38.894Z,12.60
2019-04-14T13:08:46.308Z,10.37
2019-04-14T13:10:53.752Z,8.60
2019-04-14T13:13:01.382Z,12.07
2019-04-14T13:15:09.118Z,11.73
2019-04-14T13:17:16.556Z,13.90
2019-04-14T13:19:24.026Z,19.57
2019-04-14T13:21:31.506Z,11.50
2019-04-14T13:23:39.877Z,11.80
2019-04-14T13:25:47.432Z,11.63
2019-04-14T13:27:54.859Z,9.20
2019-04-14T13:30:02.381Z,10.73
2019-04-14T13:32:10.137Z,8.10
2019-04-14T13:34:17.680Z,10.10
2019-04-14T13:36:25.483Z,10.20
2019-04-14T13:38:32.993Z,11.10
2019-04-14T13:40:40.500Z,10.63
2019-04-14T13:42:48.181Z,10.20
2019-04-14T13:44:55.871Z,10.13
2019-04-14T13:47:03.372Z,16.73
2019-04-14T13:49:10.909Z,14.60
2019-04-14T13:51:18.508Z,15.77
2019-04-14T13:53:26.255Z,11.20
2019-04-14T13:55:34.779Z,11.57
2019-04-14T13:57:42.513Z,9.03
2019-04-14T13:59:50.176Z,11.03
2019-04-14T14:01:57.745Z,11.10
2019-04-14T14:04:05.302Z,18.60
2019-04-14T14:06:12.809Z,13.90
2019-04-14T14:08:20.506Z,15.70
2019-04-14T14:10:28.972Z,13.00
2019-04-14T14:13:04.468Z,12.43
2019-04-14T14:15:29.245Z,10.70
2019-04-14T14:17:52.494Z,14.37
2019-04-14T14:20:28.030Z,11.40
2019-04-14T14:22:59.522Z,15.03
2019-04-14T14:25:25.507Z,11.40
2019-04-14T14:27:33.055Z,12.33
2019-04-14T14:29:40.676Z,19.07
2019-04-14T14:31:48.507Z,12.97
2019-04-14T14:33:55.993Z,15.77
2019-04-14T14:36:04.480Z,16.27
2019-04-14T14:38:12.071Z,15.67
2019-04-14T14:40:19.781Z,12.77
2019-04-14T14:42:27.584Z,12.10
2019-04-14T14:44:46.092Z,19.97
2019-04-14T14:47:05.131Z,12.13
2019-04-14T14:49:40.858Z,19.67
2019-04-14T14:52:16.181Z,13.37
2019-04-14T14:54:23.922Z,42.53
2019-04-14T14:56:31.484Z,28.13
2019-04-14T14:58:39.010Z,39.73
2019-04-14T15:00:46.451Z,48.90
2019-04-14T15:02:54.327Z,18.77
2019-04-14T15:05:01.892Z,17.40
2019-04-14T15:07:09.411Z,18.43
2019-04-14T15:09:20.026Z,17.07
2019-04-14T15:11:27.482Z,23.43
2019-04-14T15:13:36.421Z,32.57
2019-04-14T15:15:44.213Z,34.03
2019-04-14T15:17:51.758Z,46.33
2019-04-14T15:19:59.240Z,39.10
2019-04-14T15:22:06.888Z,33.73
2019-04-14T15:24:14.754Z,28.10
2019-04-14T15:26:22.341Z,33.03
2019-04-14T15:28:29.941Z,31.70
2019-04-14T15:30:37.359Z,15.97
2019-04-14T15:32:44.781Z,17.43
2019-04-14T15:34:52.198Z,18.30
2019-04-14T15:36:59.796Z,19.13
2019-04-14T15:39:10.038Z,29.67
2019-04-14T15:41:17.704Z,89.20
2019-04-14T15:43:25.139Z,39.13
2019-04-14T15:45:32.728Z,67.53
2019-04-14T15:47:41.244Z,161.07
2019-04-14T15:49:48.682Z,51.43
2019-04-14T15:51:59.217Z,32.13
2019-04-14T15:54:06.712Z,39.77
2019-04-14T15:56:23.140Z,24.27
2019-04-14T15:58:42.836Z,28.07
2019-04-14T16:01:15.289Z,24.47
2019-04-14T16:03:46.216Z,18.70
2019-04-14T16:06:27.715Z,22.70
2019-04-14T16:08:51.413Z,31.50
2019-04-14T16:11:06.867Z,40.20
2019-04-14T16:13:36.570Z,36.57
2019-04-14T16:15:50.547Z,31.80
2019-04-14T16:18:13.739Z,32.20
2019-04-14T16:20:25.145Z,25.83
2019-04-14T16:22:33.135Z,22.23
2019-04-14T16:24:40.878Z,30.23
2019-04-14T16:26:56.487Z,22.73
2019-04-14T16:29:13.047Z,14.77
2019-04-14T16:31:48.539Z,14.90
2019-04-14T16:34:15.113Z,16.20
2019-04-14T16:36:23.062Z,17.53
2019-04-14T16:38:30.786Z,15.50
2019-04-14T16:40:38.872Z,17.20
2019-04-14T16:42:46.314Z,19.63
2019-04-14T16:44:54.456Z,18.37
2019-04-14T16:47:02.343Z,12.57
2019-04-14T16:49:10.994Z,18.60
2019-04-14T16:51:27.990Z,13.30
2019-04-14T16:53:37.638Z,13.63
2019-04-14T16:56:07.069Z,14.27
2019-04-14T16:58:36.423Z,13.87
2019-04-14T17:00:46.421Z,18.23
2019-04-14T17:02:53.847Z,21.60
2019-04-14T17:05:01.559Z,22.00
2019-04-14T17:07:09.248Z,17.83
2019-04-14T17:09:17.310Z,16.80
2019-04-14T17:11:24.997Z,24.20
2019-04-14T17:13:35.201Z,16.73
2019-04-14T17:16:00.008Z,20.87
2019-04-14T17:18:26.350Z,16.40
2019-04-14T17:20:52.502Z,14.23
2019-04-14T17:23:15.200Z,12.40
2019-04-14T17:25:28.378Z,53.37
2019-04-14T17:27:53.249Z,40.30
2019-04-14T17:30:25.623Z,24.20
2019-04-14T17:32:54.686Z,17.77
2019-04-14T17:35:19.535Z,21.93
2019-04-14T17:37:49.947Z,23.47
2019-04-14T17:40:07.095Z,15.67
2019-04-14T17:42:21.993Z,17.23
2019-04-14T17:44:43.280Z,18.37
2019-04-14T17:47:01.593Z,19.80
2019-04-14T17:49:26.734Z,25.27
2019-04-14T17:51:42.232Z,22.70
2019-04-14T17:53:51.642Z,16.87
2019-04-14T17:56:26.755Z,30.13
2019-04-14T17:58:40.750Z,19.33
2019-04-14T18:01:15.273Z,23.13
2019-04-14T18:03:45.187Z,19.67
2019-04-14T18:05:56.217Z,21.17
2019-04-14T18:08:22.933Z,21.33
2019-04-14T18:10:52.710Z,20.10
2019-04-14T18:13:18.953Z,20.47
2019-04-14T18:15:43.212Z,25.53
2019-04-14T18:18:08.506Z,25.80
2019-04-14T18:20:38.951Z,33.17
2019-04-14T18:22:46.544Z,25.23
2019-04-14T18:24:54.131Z,30.50
2019-04-14T18:27:01.639Z,34.93
2019-04-14T18:29:31.606Z,30.67
2019-04-14T18:31:48.618Z,28.83
2019-04-14T18:34:14.993Z,27.67
2019-04-14T18:36:39.112Z,21.30
2019-04-14T18:39:04.139Z,21.27
2019-04-14T18:41:29.238Z,24.37
2019-04-14T18:43:59.476Z,24.53
2019-04-14T18:46:13.799Z,18.83
2019-04-14T18:48:42.807Z,21.13
2019-04-14T18:51:07.749Z,18.30
2019-04-14T18:53:27.072Z,16.23
2019-04-14T18:56:06.028Z,19.20
2019-04-14T18:58:41.437Z,17.43
2019-04-14T19:00:55.735Z,22.63
2019-04-14T19:03:03.725Z,17.10
2019-04-14T19:05:13.165Z,47.73
2019-04-14T19:07:20.669Z,24.37
2019-04-14T19:09:28.391Z,21.83
2019-04-14T19:11:55.247Z,14.97
2019-04-14T19:14:04.963Z,22.30
2019-04-14T19:16:16.220Z,14.87
2019-04-14T19:18:30.772Z,21.30
2019-04-14T19:20:40.255Z,21.70
2019-04-14T19:22:47.833Z,17.63
2019-04-14T19:25:07.248Z,20.90
2019-04-14T19:27:04.993Z,29.80
2019-04-14T19:29:12.578Z,23.43
2019-04-14T19:31:20.522Z,31.27
2019-04-14T19:33:28.415Z,20.70
2019-04-14T19:35:37.380Z,25.80
2019-04-14T19:37:45.467Z,22.10
2019-04-14T19:39:53.117Z,24.17
2019-04-14T19:42:00.882Z,24.53
2019-04-14T19:44:08.775Z,28.07
2019-04-14T19:46:16.422Z,24.30
2019-04-14T19:48:23.983Z,27.47
2019-04-14T19:50:31.544Z,33.73
2019-04-14T19:52:39.213Z,22.27
2019-04-14T19:54:46.726Z,25.03
2019-04-14T19:56:54.141Z,23.30
2019-04-14T19:59:01.677Z,25.53
2019-04-14T20:01:10.387Z,25.07
2019-04-14T20:03:18.051Z,24.50
2019-04-14T20:05:25.921Z,19.87
2019-04-14T20:07:33.536Z,20.93
2019-04-14T20:09:41.310Z,19.17
2019-04-14T20:11:48.839Z,23.90
2019-04-14T20:13:56.464Z,25.33
2019-04-14T20:16:14.863Z,26.07
2019-04-14T20:18:28.651Z,21.60
2019-04-14T20:20:54.800Z,17.43
2019-04-14T20:23:21.714Z,19.20
2019-04-14T20:25:51.236Z,17.80
2019-04-14T20:28:26.822Z,13.50
2019-04-14T20:30:38.752Z,21.80
2019-04-14T20:32:46.352Z,13.97
2019-04-14T20:34:54.148Z,15.23
2019-04-14T20:37:01.969Z,12.13
2019-04-14T20:39:15.891Z,14.17
2019-04-14T20:41:23.602Z,12.07
2019-04-14T20:43:31.282Z,14.13
2019-04-14T20:45:38.857Z,11.60
2019-04-14T20:47:46.671Z,15.30
2019-04-14T20:49:54.520Z,10.80
2019-04-14T20:52:02.909Z,10.33
2019-04-14T20:54:10.487Z,11.90
2019-04-14T20:56:18.158Z,12.60
2019-04-14T20:58:26.439Z,12.20
2019-04-14T21:00:34.654Z,14.80
2019-04-14T21:03:03.710Z,13.93
2019-04-14T21:05:23.975Z,14.50
2019-04-14T21:08:02.573Z,12.50
2019-04-14T21:10:19.646Z,12.37
2019-04-14T21:12:44.737Z,15.63
2019-04-14T21:15:20.224Z,12.40
2019-04-14T21:17:32.736Z,12.23
2019-04-14T21:19:54.670Z,13.80
2019-04-14T21:22:27.890Z,12.03
2019-04-14T21:24:45.962Z,12.67
2019-04-14T21:26:58.981Z,14.43
2019-04-14T21:29:28.258Z,14.07
2019-04-14T21:31:43.465Z,14.33
2019-04-14T21:34:09.947Z,13.03
2019-04-14T21:36:36.394Z,16.47
2019-04-14T21:39:03.841Z,12.93
2019-04-14T21:41:15.447Z,14.67
2019-04-14T21:43:23.107Z,15.17
2019-04-14T21:45:30.924Z,13.80
2019-04-14T21:47:38.778Z,13.53
2019-04-14T21:49:46.260Z,14.27
2019-04-14T21:52:04.524Z,14.63
2019-04-14T21:54:11.938Z,13.07
2019-04-14T21:56:19.732Z,15.50
2019-04-14T21:58:55.051Z,13.13
2019-04-14T22:01:55.135Z,13.53
2019-04-14T22:04:21.356Z,15.83
2019-04-14T22:06:35.206Z,16.03
2019-04-14T22:08:47.044Z,13.67
2019-04-14T22:10:56.401Z,13.47
2019-04-14T22:13:03.995Z,14.70
2019-04-14T22:15:14.578Z,14.47
2019-04-14T22:17:22.076Z,23.60
2019-04-14T22:19:30.460Z,27.33
2019-04-14T22:21:37.897Z,16.20
2019-04-14T22:23:45.367Z,14.07
2019-04-14T22:25:52.850Z,21.30
2019-04-14T22:28:00.360Z,15.80
2019-04-14T22:30:11.087Z,11.73
2019-04-14T22:32:18.537Z,19.03
2019-04-14T22:34:25.994Z,16.97
2019-04-14T22:36:34.115Z,12.27
2019-04-14T22:38:41.484Z,16.23
2019-04-14T22:40:48.902Z,16.73
2019-04-14T22:42:56.408Z,12.80
2019-04-14T22:45:03.993Z,13.30
2019-04-14T22:47:11.450Z,14.93
2019-04-14T22:49:18.808Z,12.80
2019-04-14T22:51:26.246Z,17.10
2019-04-14T22:53:33.640Z,14.93
2019-04-14T22:55:41.001Z,12.60
2019-04-14T22:57:48.396Z,14.20
2019-04-14T22:59:55.769Z,17.20
2019-04-14T23:02:09.184Z,12.00
2019-04-14T23:04:38.369Z,15.57
2019-04-14T23:07:03.374Z,11.73
2019-04-14T23:09:21.458Z,12.40
2019-04-14T23:11:38.654Z,13.13
2019-04-14T23:14:10.616Z,19.27
2019-04-14T23:16:26.528Z,12.73
2019-04-14T23:18:56.061Z,13.97
2019-04-14T23:21:22.311Z,13.43
2019-04-14T23:23:54.341Z,15.13
2019-04-14T23:26:01.901Z,13.57
2019-04-14T23:28:09.278Z,15.07
2019-04-14T23:30:16.950Z,13.30
2019-04-14T23:32:24.392Z,11.40
2019-04-14T23:34:31.796Z,11.70
2019-04-14T23:36:39.392Z,13.17
2019-04-14T23:38:46.816Z,10.80
2019-04-14T23:40:54.277Z,13.53
2019-04-14T23:43:01.631Z,10.80
2019-04-14T23:45:09.231Z,12.13
2019-04-14T23:47:16.679Z,14.43
2019-04-14T23:49:24.098Z,10.20
2019-04-14T23:51:31.469Z,11.63
2019-04-14T23:53:38.850Z,12.57
2019-04-14T23:55:46.246Z,16.33
2019-04-14T23:57:53.685Z,15.20
